TimeEDT,TemperatureF,Dew PointF,Humidity,Sea Level PressureIn,VisibilityMPH,Wind Direction,Wind SpeedMPH,Gust SpeedMPH,PrecipitationIn,Events,Conditions,WindDirDegrees,DateUTC
12:54 AM,75.0,70.0,84,29.90,9.0,SSW,6.9,-,N/A,,Clear,200,2013-09-20 04:54:00
1:54 AM,75.0,70.0,84,29.88,10.0,SSW,6.9,-,N/A,,Clear,210,2013-09-20 05:54:00
2:54 AM,75.0,70.0,84,29.87,10.0,SSW,5.8,-,N/A,,Clear,210,2013-09-20 06:54:00
3:54 AM,73.9,70.0,87,29.87,10.0,SSW,6.9,-,N/A,,Mostly Cloudy,210,2013-09-20 07:54:00
4:23 AM,73.4,69.8,88,29.89,10.0,West,5.8,-,N/A,,Mostly Cloudy,280,2013-09-20 08:23:00
4:54 AM,73.9,64.9,73,29.87,10.0,West,6.9,-,N/A,,Overcast,280,2013-09-20 08:54:00
5:47 AM,71.6,66.2,83,29.87,10.0,SSE,3.5,-,N/A,,Scattered Clouds,160,2013-09-20 09:47:00
5:54 AM,72.0,66.0,81,29.85,10.0,South,3.5,-,N/A,,Partly Cloudy,190,2013-09-20 09:54:00
6:54 AM,72.0,69.1,91,29.84,9.0,South,6.9,-,N/A,,Clear,180,2013-09-20 10:54:00
7:54 AM,72.0,68.0,87,29.86,9.0,WSW,5.8,-,N/A,,Scattered Clouds,240,2013-09-20 11:54:00
8:16 AM,71.6,69.8,94,29.88,9.0,SW,4.6,-,N/A,,Mostly Cloudy,230,2013-09-20 12:16:00
8:54 AM,73.0,66.9,81,29.87,10.0,WSW,11.5,18.4,N/A,,Mostly Cloudy,250,2013-09-20 12:54:00
9:31 AM,71.6,66.2,83,29.88,10.0,SW,6.9,-,0.00,Rain,Light Rain,230,2013-09-20 13:31:00
9:54 AM,70.0,66.0,87,29.87,9.0,SW,5.8,-,0.00,Rain,Light Rain,230,2013-09-20 13:54:00
10:54 AM,71.1,66.0,84,29.88,10.0,WSW,8.1,-,0.00,,Mostly Cloudy,240,2013-09-20 14:54:00
11:54 AM,71.1,66.9,87,29.88,10.0,SW,8.1,-,0.00,Rain,Light Rain,230,2013-09-20 15:54:00
12:54 PM,71.1,66.0,84,29.86,10.0,WSW,5.8,-,0.00,,Mostly Cloudy,250,2013-09-20 16:54:00
1:54 PM,73.9,66.0,76,29.84,10.0,West,9.2,-,N/A,,Partly Cloudy,270,2013-09-20 17:54:00
2:34 PM,73.4,64.4,73,29.84,10.0,West,8.1,-,N/A,,Mostly Cloudy,260,2013-09-20 18:34:00
2:47 PM,73.4,64.4,73,29.84,10.0,West,10.4,-,N/A,,Mostly Cloudy,270,2013-09-20 18:47:00
2:54 PM,73.0,64.0,73,29.83,10.0,West,9.2,-,N/A,,Mostly Cloudy,270,2013-09-20 18:54:00
3:07 PM,73.4,64.4,73,29.83,10.0,WSW,5.8,-,N/A,,Mostly Cloudy,250,2013-09-20 19:07:00
3:54 PM,73.9,64.9,73,29.81,10.0,WSW,5.8,-,N/A,,Scattered Clouds,250,2013-09-20 19:54:00
4:54 PM,68.0,66.9,96,29.81,4.0,West,9.2,-,0.15,Rain,Rain,270,2013-09-20 20:54:00
5:14 PM,68.0,66.2,94,29.82,8.0,WSW,3.5,-,0.06,Rain,Light Rain,240,2013-09-20 21:14:00
5:54 PM,68.0,66.9,96,29.81,7.0,WSW,4.6,-,0.08,Rain,Light Rain,240,2013-09-20 21:54:00
6:16 PM,68.0,66.2,94,29.82,1.8,SW,4.6,-,0.07,Rain,Heavy Rain,230,2013-09-20 22:16:00
6:20 PM,68.0,66.2,94,29.81,3.0,Calm,Calm,-,0.09,Rain,Heavy Rain,0,2013-09-20 22:20:00
6:54 PM,68.0,66.9,96,29.81,3.0,SW,4.6,-,0.11,Rain,Light Rain,230,2013-09-20 22:54:00
7:04 PM,68.0,66.2,94,29.81,7.0,SW,5.8,-,0.00,Rain,Light Rain,230,2013-09-20 23:04:00
7:54 PM,66.9,66.0,97,29.80,10.0,SW,3.5,-,0.00,,Mostly Cloudy,230,2013-09-20 23:54:00
8:54 PM,66.9,66.0,97,29.81,10.0,WSW,3.5,-,N/A,,Mostly Cloudy,240,2013-09-21 00:54:00
9:01 PM,66.2,66.2,100,29.82,10.0,WSW,3.5,-,N/A,,Mostly Cloudy,240,2013-09-21 01:01:00
9:03 PM,66.2,66.2,100,29.82,10.0,WSW,3.5,-,N/A,,Mostly Cloudy,240,2013-09-21 01:03:00
9:13 PM,66.2,66.2,100,29.82,10.0,WSW,3.5,-,N/A,,Mostly Cloudy,240,2013-09-21 01:13:00
9:54 PM,66.9,64.9,93,29.81,10.0,West,9.2,-,N/A,,Mostly Cloudy,280,2013-09-21 01:54:00
10:54 PM,63.0,59.0,87,29.82,10.0,WNW,5.8,-,N/A,,Overcast,300,2013-09-21 02:54:00
11:54 PM,61.0,57.0,87,29.84,10.0,WNW,5.8,-,N/A,,Overcast,300,2013-09-21 03:54:00